createdAt,value
2023-01-09T00:00:04.763Z,30.23
2023-01-09T00:02:33.753Z,30.17
2023-01-09T00:05:01.870Z,31.90
2023-01-09T00:07:30.322Z,24.83
2023-01-09T00:09:59.722Z,30.58
2023-01-09T00:12:28.381Z,26.80
2023-01-09T00:14:56.814Z,29.55
2023-01-09T00:17:28.336Z,28.73
2023-01-09T00:19:57.349Z,34.38
2023-01-09T00:22:25.699Z,30.10
2023-01-09T00:24:53.980Z,26.52
2023-01-09T00:27:22.044Z,31.83
2023-01-09T00:29:50.912Z,32.13
2023-01-09T00:32:20.922Z,24.00
2023-01-09T00:34:50.151Z,25.58
2023-01-09T00:37:18.469Z,25.10
2023-01-09T00:39:46.843Z,27.92
2023-01-09T00:42:27.056Z,24.90
2023-01-09T00:45:01.790Z,28.58
2023-01-09T00:47:40.659Z,21.75
2023-01-09T00:50:16.700Z,34.47
2023-01-09T00:52:46.661Z,23.88
2023-01-09T00:55:15.702Z,27.40
2023-01-09T00:57:44.824Z,34.20
2023-01-09T01:00:13.681Z,27.35
2023-01-09T01:02:42.138Z,24.60
2023-01-09T01:05:32.389Z,24.67
2023-01-09T01:08:00.917Z,19.25
2023-01-09T01:10:29.204Z,26.55
2023-01-09T01:12:57.998Z,30.15
2023-01-09T01:15:29.518Z,27.92
2023-01-09T01:17:58.239Z,25.38
2023-01-09T01:20:28.006Z,26.63
2023-01-09T01:22:56.273Z,31.15
2023-01-09T01:25:24.701Z,26.38
2023-01-09T01:27:53.507Z,22.60
2023-01-09T01:30:22.238Z,16.73
2023-01-09T01:32:50.662Z,19.20
2023-01-09T01:35:19.750Z,22.08
2023-01-09T01:37:49.908Z,30.05
2023-01-09T01:40:18.100Z,23.10
2023-01-09T01:42:51.838Z,29.50
2023-01-09T01:45:29.664Z,24.83
2023-01-09T01:48:07.108Z,24.15
2023-01-09T01:50:59.567Z,23.05
2023-01-09T01:53:55.941Z,25.35
2023-01-09T01:56:44.284Z,23.70
2023-01-09T01:59:31.726Z,22.20
2023-01-09T02:02:02.628Z,22.02
2023-01-09T02:04:35.942Z,20.98
2023-01-09T02:07:09.981Z,22.70
2023-01-09T02:09:42.103Z,25.85
2023-01-09T02:12:26.592Z,24.70
2023-01-09T02:15:13.783Z,21.40
2023-01-09T02:18:19.838Z,14.50
2023-01-09T02:21:13.413Z,21.42
2023-01-09T02:24:32.276Z,23.02
2023-01-09T02:28:03.567Z,26.35
2023-01-09T02:30:56.849Z,22.20
2023-01-09T02:33:49.438Z,19.33
2023-01-09T02:36:52.582Z,22.00
2023-01-09T02:39:43.238Z,20.38
2023-01-09T02:42:18.397Z,19.58
2023-01-09T02:44:47.146Z,22.60
2023-01-09T02:47:22.133Z,21.80
2023-01-09T02:49:56.739Z,25.42
2023-01-09T02:52:49.413Z,21.60
2023-01-09T02:55:54.083Z,17.05
2023-01-09T02:59:26.979Z,24.10
2023-01-09T03:02:44.668Z,18.88
2023-01-09T03:05:45.521Z,23.52
2023-01-09T03:08:23.647Z,17.05
2023-01-09T03:10:59.568Z,20.80
2023-01-09T03:13:34.590Z,24.83
2023-01-09T03:16:08.420Z,15.63
2023-01-09T03:18:39.041Z,18.85
2023-01-09T03:21:12.525Z,21.17
2023-01-09T03:24:13.210Z,22.70
2023-01-09T03:26:41.700Z,20.60
2023-01-09T03:29:10.713Z,19.02
2023-01-09T03:31:39.115Z,21.60
2023-01-09T03:34:07.476Z,21.45
2023-01-09T03:36:35.592Z,14.82
2023-01-09T03:39:03.783Z,15.18
2023-01-09T03:41:32.890Z,19.98
2023-01-09T03:44:00.859Z,20.58
2023-01-09T03:46:29.320Z,19.00
2023-01-09T03:48:58.379Z,21.20
2023-01-09T03:51:26.434Z,17.83
2023-01-09T03:53:54.948Z,16.48
2023-01-09T03:56:23.077Z,19.27
2023-01-09T03:58:53.243Z,17.17
2023-01-09T04:01:21.689Z,16.25
2023-01-09T04:03:50.323Z,20.92
2023-01-09T04:06:18.799Z,14.85
2023-01-09T04:08:47.168Z,16.73
2023-01-09T04:11:17.772Z,17.75
2023-01-09T04:13:45.956Z,16.40
2023-01-09T04:16:14.658Z,17.38
2023-01-09T04:18:43.261Z,20.25
2023-01-09T04:21:11.372Z,17.95
2023-01-09T04:23:39.536Z,17.85
2023-01-09T04:26:08.453Z,14.07
2023-01-09T04:28:36.869Z,15.43
2023-01-09T04:31:05.505Z,17.60
2023-01-09T04:33:33.711Z,15.60
2023-01-09T04:36:01.880Z,17.08
2023-01-09T04:38:30.392Z,14.82
2023-01-09T04:40:58.800Z,13.65
2023-01-09T04:43:27.397Z,16.00
2023-01-09T04:45:56.728Z,17.25
2023-01-09T04:48:25.685Z,15.23
2023-01-09T04:50:53.808Z,14.10
2023-01-09T04:53:23.335Z,13.30
2023-01-09T04:55:52.116Z,14.70
2023-01-09T04:58:21.989Z,14.15
2023-01-09T05:00:50.400Z,16.25
2023-01-09T05:03:19.030Z,12.70
2023-01-09T05:05:47.126Z,15.38
2023-01-09T05:08:15.449Z,13.18
2023-01-09T05:10:44.919Z,14.73
2023-01-09T05:13:13.193Z,17.58
2023-01-09T05:15:41.639Z,13.85
2023-01-09T05:18:10.152Z,15.32
2023-01-09T05:20:38.778Z,13.98
2023-01-09T05:23:07.611Z,20.38
2023-01-09T05:25:36.555Z,12.57
2023-01-09T05:28:05.496Z,15.38
2023-01-09T05:30:34.251Z,15.75
2023-01-09T05:33:02.887Z,18.27
2023-01-09T05:35:31.083Z,14.15
2023-01-09T05:37:59.628Z,17.33
2023-01-09T05:40:32.243Z,14.38
2023-01-09T05:43:07.060Z,13.80
2023-01-09T05:45:36.276Z,20.98
2023-01-09T05:48:05.238Z,15.45
2023-01-09T05:50:33.822Z,12.85
2023-01-09T05:53:02.517Z,15.85
2023-01-09T05:55:30.819Z,15.60
2023-01-09T05:58:00.043Z,16.10
2023-01-09T06:00:28.590Z,18.08
2023-01-09T06:02:57.432Z,16.95
2023-01-09T06:05:26.140Z,15.75
2023-01-09T06:07:54.559Z,13.60
2023-01-09T06:10:23.106Z,17.02
2023-01-09T06:12:55.054Z,15.70
2023-01-09T06:15:23.469Z,14.35
2023-01-09T06:17:52.072Z,14.20
2023-01-09T06:20:21.031Z,13.65
2023-01-09T06:22:52.280Z,14.27
2023-01-09T06:25:20.879Z,16.55
2023-01-09T06:27:50.639Z,16.35
2023-01-09T06:30:20.430Z,12.63
2023-01-09T06:32:50.417Z,13.07
2023-01-09T06:35:21.416Z,12.27
2023-01-09T06:37:50.347Z,16.98
2023-01-09T06:40:20.353Z,15.65
2023-01-09T06:42:50.519Z,16.48
2023-01-09T06:45:19.440Z,12.35
2023-01-09T06:47:48.676Z,17.05
2023-01-09T06:50:17.788Z,16.08
2023-01-09T06:52:46.323Z,15.38
2023-01-09T06:55:14.978Z,16.08
2023-01-09T06:57:44.315Z,14.60
2023-01-09T07:00:14.672Z,14.35
2023-01-09T07:02:43.205Z,13.45
2023-01-09T07:05:12.370Z,15.15
2023-01-09T07:07:41.654Z,16.40
2023-01-09T07:10:11.650Z,14.10
2023-01-09T07:12:41.833Z,12.20
2023-01-09T07:15:13.830Z,16.38
2023-01-09T07:17:42.136Z,15.25
2023-01-09T07:20:12.420Z,13.82
2023-01-09T07:22:40.739Z,12.02
2023-01-09T07:25:09.776Z,12.73
2023-01-09T07:27:38.419Z,12.82
2023-01-09T07:30:10.737Z,15.98
2023-01-09T07:32:41.463Z,16.15
2023-01-09T07:35:11.193Z,15.47
2023-01-09T07:37:40.448Z,14.55
2023-01-09T07:40:10.325Z,15.85
2023-01-09T07:42:38.972Z,14.07
2023-01-09T07:45:09.484Z,15.65
2023-01-09T07:47:39.888Z,15.00
2023-01-09T07:50:13.480Z,15.60
2023-01-09T07:52:44.529Z,14.95
2023-01-09T07:55:15.014Z,17.40
2023-01-09T07:57:49.997Z,13.38
2023-01-09T08:00:21.368Z,13.77
2023-01-09T08:02:54.451Z,13.35
2023-01-09T08:05:22.848Z,13.30
2023-01-09T08:07:52.487Z,12.85
2023-01-09T08:10:21.311Z,17.30
2023-01-09T08:12:50.157Z,16.38
2023-01-09T08:15:20.080Z,10.93
2023-01-09T08:17:49.035Z,14.50
2023-01-09T08:20:21.253Z,13.68
2023-01-09T08:22:51.360Z,15.57
2023-01-09T08:25:21.462Z,17.85
2023-01-09T08:27:49.978Z,13.95
2023-01-09T08:30:20.419Z,18.20
2023-01-09T08:32:54.116Z,17.25
2023-01-09T08:35:23.019Z,15.93
2023-01-09T08:37:51.394Z,17.00
2023-01-09T08:40:20.447Z,16.80
2023-01-09T08:43:08.026Z,13.85
2023-01-09T08:45:55.994Z,17.25
2023-01-09T08:48:25.061Z,16.70
2023-01-09T08:50:54.548Z,15.57
2023-01-09T08:53:22.776Z,19.70
2023-01-09T08:55:51.773Z,12.88
2023-01-09T08:58:20.735Z,15.35
2023-01-09T09:00:49.177Z,20.13
2023-01-09T09:03:18.022Z,15.68
2023-01-09T09:05:46.974Z,16.20
2023-01-09T09:08:16.761Z,15.40
2023-01-09T09:10:45.775Z,13.90
2023-01-09T09:13:14.328Z,16.17
2023-01-09T09:15:42.698Z,16.08
2023-01-09T09:18:11.510Z,19.77
2023-01-09T09:20:40.236Z,17.70
2023-01-09T09:23:09.015Z,14.43
2023-01-09T09:25:38.914Z,15.88
2023-01-09T09:28:08.447Z,17.58
2023-01-09T09:30:39.603Z,17.20
2023-01-09T09:33:08.440Z,13.68
2023-01-09T09:35:37.606Z,15.30
2023-01-09T09:38:06.372Z,14.30
2023-01-09T09:41:01.600Z,14.20
2023-01-09T09:44:24.039Z,13.55
2023-01-09T09:47:04.657Z,15.73
2023-01-09T09:50:01.066Z,16.80
2023-01-09T09:52:46.436Z,21.58
2023-01-09T09:55:42.629Z,17.23
2023-01-09T09:58:29.077Z,17.13
2023-01-09T10:01:01.483Z,17.63
2023-01-09T10:03:49.366Z,16.40
2023-01-09T10:06:34.867Z,17.55
2023-01-09T10:09:33.121Z,20.83
2023-01-09T10:12:52.827Z,15.23
2023-01-09T10:15:42.961Z,18.83
2023-01-09T10:18:58.265Z,13.73
2023-01-09T10:21:46.902Z,11.93
2023-01-09T10:24:21.362Z,14.63
2023-01-09T10:26:54.608Z,14.32
2023-01-09T10:30:26.920Z,14.43
2023-01-09T10:33:15.676Z,13.63
2023-01-09T10:36:02.107Z,13.48
2023-01-09T10:38:38.375Z,15.50
2023-01-09T10:41:21.758Z,13.82
2023-01-09T10:44:15.547Z,10.88
2023-01-09T10:47:09.619Z,13.02
2023-01-09T10:49:40.047Z,12.18
2023-01-09T10:52:20.697Z,12.23
2023-01-09T10:55:32.713Z,12.82
2023-01-09T10:58:18.187Z,16.63
2023-01-09T11:00:49.437Z,14.10
2023-01-09T11:03:24.305Z,15.70
2023-01-09T11:05:56.950Z,17.20
2023-01-09T11:08:53.971Z,17.50
2023-01-09T11:11:38.805Z,15.23
2023-01-09T11:14:27.980Z,12.55
2023-01-09T11:17:03.839Z,16.17
2023-01-09T11:19:35.892Z,19.40
2023-01-09T11:22:17.611Z,20.98
2023-01-09T11:24:46.835Z,20.42
2023-01-09T11:27:14.621Z,17.45
2023-01-09T11:29:43.705Z,16.73
2023-01-09T11:32:24.532Z,23.40
2023-01-09T11:34:52.632Z,18.65
2023-01-09T11:37:29.958Z,19.55
2023-01-09T11:40:00.988Z,19.77
2023-01-09T11:42:49.036Z,23.58
2023-01-09T11:45:19.271Z,18.83
2023-01-09T11:47:48.010Z,15.32
2023-01-09T11:50:27.220Z,15.60
2023-01-09T11:53:17.217Z,17.52
2023-01-09T11:55:50.248Z,16.77
2023-01-09T11:58:23.003Z,16.00
2023-01-09T12:01:24.948Z,13.23
2023-01-09T12:04:38.399Z,13.98
2023-01-09T12:08:06.232Z,16.77
2023-01-09T12:11:11.880Z,14.10
2023-01-09T12:14:11.739Z,15.18
2023-01-09T12:17:02.711Z,13.18
2023-01-09T12:20:10.851Z,17.40
2023-01-09T12:23:10.570Z,13.82
2023-01-09T12:26:12.385Z,14.48
2023-01-09T12:29:26.005Z,14.10
2023-01-09T12:32:36.176Z,16.38
2023-01-09T12:35:55.072Z,14.68
2023-01-09T12:38:51.641Z,14.60
2023-01-09T12:41:47.288Z,13.35
2023-01-09T12:44:43.888Z,14.15
2023-01-09T12:47:47.448Z,13.27
2023-01-09T12:50:27.757Z,15.88
2023-01-09T12:53:26.453Z,14.45
2023-01-09T12:56:36.413Z,14.05
2023-01-09T12:59:32.751Z,14.70
2023-01-09T13:02:13.643Z,11.73
2023-01-09T13:04:58.132Z,12.00
2023-01-09T13:08:15.286Z,16.60
2023-01-09T13:10:49.522Z,14.85
2023-01-09T13:13:46.300Z,12.18
2023-01-09T13:16:29.244Z,16.17
2023-01-09T13:19:11.596Z,11.52
2023-01-09T13:21:41.669Z,15.40
2023-01-09T13:24:39.116Z,16.77
2023-01-09T13:27:19.866Z,17.45
2023-01-09T13:30:17.180Z,16.55
2023-01-09T13:33:29.013Z,16.05
2023-01-09T13:36:00.368Z,16.38
2023-01-09T13:38:32.003Z,17.42
2023-01-09T13:41:32.858Z,16.17
2023-01-09T13:44:26.454Z,15.57
2023-01-09T13:46:59.212Z,12.88
2023-01-09T13:49:59.810Z,13.18
2023-01-09T13:52:42.728Z,11.13
2023-01-09T13:55:17.213Z,14.60
2023-01-09T13:58:14.910Z,16.77
2023-01-09T14:00:43.816Z,12.82
2023-01-09T14:03:45.209Z,13.38
2023-01-09T14:06:16.973Z,14.85
2023-01-09T14:08:48.012Z,16.05
2023-01-09T14:11:23.347Z,10.57
2023-01-09T14:14:03.158Z,17.23
2023-01-09T14:16:32.682Z,12.93
2023-01-09T14:19:19.707Z,13.55
2023-01-09T14:21:57.009Z,12.57
2023-01-09T14:24:42.818Z,14.05
2023-01-09T14:27:54.815Z,15.05
2023-01-09T14:31:02.293Z,16.40
2023-01-09T14:33:32.981Z,15.10
2023-01-09T14:36:11.436Z,16.38
2023-01-09T14:39:04.129Z,16.33
2023-01-09T14:42:06.641Z,14.90
2023-01-09T14:44:59.965Z,13.10
2023-01-09T14:47:42.016Z,17.48
2023-01-09T14:50:48.530Z,18.02
2023-01-09T14:53:31.617Z,18.90
2023-01-09T14:56:24.102Z,18.48
2023-01-09T14:59:14.812Z,17.75
2023-01-09T15:01:49.672Z,13.32
2023-01-09T15:04:39.161Z,13.32
2023-01-09T15:07:08.390Z,12.85
2023-01-09T15:10:03.927Z,14.25
2023-01-09T15:12:34.281Z,14.40
2023-01-09T15:15:04.950Z,13.90
2023-01-09T15:17:36.927Z,13.25
2023-01-09T15:20:08.594Z,13.00
2023-01-09T15:22:38.522Z,15.48
2023-01-09T15:25:38.993Z,12.13
2023-01-09T15:28:32.871Z,16.00
2023-01-09T15:31:11.900Z,12.32
2023-01-09T15:33:42.627Z,13.02
2023-01-09T15:36:22.831Z,11.53
2023-01-09T15:38:52.933Z,13.23
2023-01-09T15:41:49.152Z,10.90
2023-01-09T15:44:29.610Z,12.38
2023-01-09T15:46:59.966Z,11.43
2023-01-09T15:49:28.627Z,12.90
2023-01-09T15:51:57.383Z,13.93
2023-01-09T15:54:32.057Z,15.20
2023-01-09T15:57:26.120Z,16.35
2023-01-09T16:00:23.186Z,12.27
2023-01-09T16:03:12.474Z,10.52
2023-01-09T16:06:08.981Z,12.18
2023-01-09T16:08:54.236Z,14.52
2023-01-09T16:11:50.203Z,14.68
2023-01-09T16:14:38.803Z,15.93
2023-01-09T16:17:16.039Z,15.55
2023-01-09T16:19:55.771Z,17.75
2023-01-09T16:22:25.625Z,16.10
2023-01-09T16:24:58.356Z,12.50
2023-01-09T16:27:34.360Z,10.68
2023-01-09T16:30:05.972Z,15.60
2023-01-09T16:32:48.002Z,12.57
2023-01-09T16:35:20.264Z,13.60
2023-01-09T16:37:48.941Z,11.90
2023-01-09T16:40:17.251Z,14.65
2023-01-09T16:43:01.750Z,18.48
2023-01-09T16:45:42.098Z,17.65
2023-01-09T16:48:22.022Z,14.77
2023-01-09T16:50:50.752Z,15.25
2023-01-09T16:53:24.480Z,16.85
2023-01-09T16:55:54.496Z,17.13
2023-01-09T16:58:30.960Z,19.85
2023-01-09T17:01:00.051Z,16.02
2023-01-09T17:03:28.433Z,15.35
2023-01-09T17:06:01.418Z,17.35
2023-01-09T17:08:33.195Z,16.50
2023-01-09T17:13:30.440Z,17.40
2023-01-09T17:16:00.140Z,21.02
2023-01-09T17:18:30.471Z,15.27
2023-01-09T17:20:59.511Z,17.05
2023-01-09T17:23:29.026Z,17.25
2023-01-09T17:26:19.537Z,17.33
2023-01-09T17:28:51.958Z,15.25
2023-01-09T17:31:20.646Z,15.88
2023-01-09T17:33:49.853Z,17.65
2023-01-09T17:36:35.076Z,18.52
2023-01-09T17:39:03.939Z,17.77
2023-01-09T17:41:33.849Z,18.38
2023-01-09T17:44:02.451Z,17.77
2023-01-09T17:46:36.801Z,17.65
2023-01-09T17:49:08.013Z,15.13
2023-01-09T17:54:06.269Z,18.15
2023-01-09T17:56:39.721Z,16.45
2023-01-09T17:59:10.202Z,16.50
2023-01-09T18:01:38.444Z,16.63
2023-01-09T18:04:07.110Z,17.45
2023-01-09T18:06:39.674Z,20.95
2023-01-09T18:09:13.628Z,19.70
2023-01-09T18:11:45.090Z,20.13
2023-01-09T18:16:44.750Z,22.23
2023-01-09T18:19:13.611Z,16.27
2023-01-09T18:21:42.573Z,15.68
2023-01-09T18:24:11.345Z,21.27
2023-01-09T18:26:39.979Z,16.80
2023-01-09T18:29:09.942Z,19.58
2023-01-09T18:31:38.761Z,19.38
2023-01-09T18:34:07.905Z,18.15
2023-01-09T18:36:36.841Z,15.38
2023-01-09T18:39:07.393Z,16.13
2023-01-09T18:41:36.181Z,14.45
2023-01-09T18:44:06.339Z,15.13
2023-01-09T18:46:35.207Z,18.10
2023-01-09T18:49:05.696Z,16.27
2023-01-09T18:51:39.114Z,15.43
2023-01-09T18:54:09.078Z,15.15
2023-01-09T18:56:38.087Z,17.70
2023-01-09T18:59:07.128Z,15.45
2023-01-09T19:01:36.400Z,20.73
2023-01-09T19:04:05.413Z,15.50
2023-01-09T19:06:34.078Z,18.02
2023-01-09T19:09:02.764Z,20.38
2023-01-09T19:11:30.995Z,20.33
2023-01-09T19:14:00.511Z,16.98
2023-01-09T19:16:28.996Z,18.70
2023-01-09T19:18:58.617Z,20.98
2023-01-09T19:21:27.119Z,16.20
2023-01-09T19:23:55.603Z,17.00
2023-01-09T19:26:26.947Z,14.90
2023-01-09T19:28:58.129Z,17.58
2023-01-09T19:31:29.349Z,15.85
2023-01-09T19:33:59.020Z,19.05
2023-01-09T19:36:29.105Z,15.48
2023-01-09T19:39:02.577Z,19.50
2023-01-09T19:41:31.125Z,15.00
2023-01-09T19:44:03.368Z,17.05
2023-01-09T19:46:33.948Z,16.35
2023-01-09T19:49:05.164Z,21.15
2023-01-09T19:51:35.297Z,17.98
2023-01-09T19:56:41.082Z,16.65
2023-01-09T19:59:12.126Z,19.73
2023-01-09T20:01:45.541Z,18.60
2023-01-09T20:04:15.448Z,20.30
2023-01-09T20:06:48.288Z,18.58
2023-01-09T20:09:27.681Z,19.63
2023-01-09T20:11:56.717Z,21.42
2023-01-09T20:14:25.347Z,17.52
2023-01-09T20:16:55.772Z,19.38
2023-01-09T20:19:24.515Z,21.02
2023-01-09T20:21:53.963Z,21.25
2023-01-09T20:24:22.046Z,16.00
2023-01-09T20:26:51.388Z,18.20
2023-01-09T20:29:20.789Z,16.25
2023-01-09T20:31:50.755Z,18.83
2023-01-09T20:34:19.747Z,17.90
2023-01-09T20:36:48.548Z,17.98
2023-01-09T20:39:17.676Z,17.83
2023-01-09T20:41:46.627Z,14.68
2023-01-09T20:44:16.404Z,28.63
2023-01-09T20:46:49.959Z,17.73
2023-01-09T20:49:18.929Z,21.05
2023-01-09T20:51:52.958Z,18.50
2023-01-09T20:54:22.954Z,19.48
2023-01-09T20:56:51.838Z,17.52
2023-01-09T20:59:22.468Z,21.38
2023-01-09T21:01:51.893Z,17.93
2023-01-09T21:04:20.735Z,21.70
2023-01-09T21:06:50.358Z,16.48
2023-01-09T21:09:19.383Z,20.75
2023-01-09T21:11:47.905Z,19.83
2023-01-09T21:14:16.745Z,18.75
2023-01-09T21:16:53.853Z,22.90
2023-01-09T21:19:23.793Z,19.85
2023-01-09T21:21:53.439Z,22.90
2023-01-09T21:24:22.079Z,19.45
2023-01-09T21:26:51.142Z,18.10
2023-01-09T21:29:19.782Z,18.23
2023-01-09T21:31:48.182Z,22.42
2023-01-09T21:34:20.336Z,18.42
2023-01-09T21:36:49.075Z,18.90
2023-01-09T21:39:20.967Z,19.27
2023-01-09T21:42:08.391Z,19.55
2023-01-09T21:44:55.799Z,17.08
2023-01-09T21:47:24.492Z,21.38
2023-01-09T21:49:52.861Z,18.20
2023-01-09T21:52:21.277Z,20.02
2023-01-09T21:54:50.642Z,20.95
2023-01-09T21:57:20.586Z,20.10
2023-01-09T21:59:49.314Z,25.35
2023-01-09T22:02:17.897Z,21.02
2023-01-09T22:04:49.547Z,19.55
2023-01-09T22:09:46.111Z,19.10
2023-01-09T22:12:14.215Z,16.48
2023-01-09T22:14:42.900Z,18.27
2023-01-09T22:17:11.008Z,17.52
2023-01-09T22:19:39.431Z,19.42
2023-01-09T22:22:09.003Z,18.02
2023-01-09T22:24:37.381Z,20.27
2023-01-09T22:27:05.609Z,18.83
2023-01-09T22:29:34.320Z,20.80
2023-01-09T22:32:02.351Z,21.13
2023-01-09T22:34:31.199Z,19.15
2023-01-09T22:37:00.519Z,20.67
2023-01-09T22:39:28.985Z,18.30
2023-01-09T22:41:59.243Z,20.77
2023-01-09T22:44:27.695Z,29.70
2023-01-09T22:46:57.473Z,21.65
2023-01-09T22:49:29.951Z,21.13
2023-01-09T22:51:59.407Z,22.23
2023-01-09T22:54:28.050Z,20.85
2023-01-09T22:56:56.853Z,23.15
2023-01-09T22:59:27.561Z,24.40
2023-01-09T23:01:57.911Z,21.85
2023-01-09T23:04:26.866Z,23.42
2023-01-09T23:06:55.588Z,21.30
2023-01-09T23:09:25.733Z,28.15
2023-01-09T23:12:03.864Z,20.73
2023-01-09T23:14:36.060Z,20.95
2023-01-09T23:17:10.013Z,26.65
2023-01-09T23:19:38.596Z,22.40
2023-01-09T23:22:07.310Z,24.77
2023-01-09T23:24:35.514Z,25.88
2023-01-09T23:27:04.650Z,26.20
2023-01-09T23:29:33.422Z,21.90
2023-01-09T23:32:07.903Z,22.25
2023-01-09T23:34:36.576Z,19.25
2023-01-09T23:37:09.169Z,20.60
2023-01-09T23:39:37.477Z,22.92
2023-01-09T23:42:24.992Z,21.88
2023-01-09T23:44:53.755Z,21.02
2023-01-09T23:47:22.447Z,24.80
2023-01-09T23:49:50.615Z,21.85
2023-01-09T23:52:19.377Z,26.25
2023-01-09T23:54:47.439Z,21.58
2023-01-09T23:57:15.789Z,21.52
2023-01-09T23:59:44.601Z,21.85
